Terminal Aerodrome Forecast
Issued by NWS

Home | Current Version | Previous Version | Text Only | Print | Product List | Glossary Off
Versions: 1 2 3 4 5 6 7 8 9 10 11 12 13 14 15 16

626
FTUS43 KBIS 181130
TAFDIK
TAF
KDIK 181130Z 1812/1912 25012KT P6SM SKC
     FM182300 22009KT P6SM SKC=

USA.gov is the U.S. government's official web portal to all federal, state and local government web resources and services.